sensor_id;sensor_type;location;lat;lon;timestamp;P1;durP1;ratioP1;P2;durP2;ratioP2
50815;SDS011;39717;47.324;8.788;2023-02-03T00:00:58;5.03;;;2.77;;
50815;SDS011;39717;47.324;8.788;2023-02-03T00:03:24;5.27;;;2.33;;
50815;SDS011;39717;47.324;8.788;2023-02-03T00:05:49;4.70;;;2.23;;
50815;SDS011;39717;47.324;8.788;2023-02-03T00:08:16;2.03;;;1.80;;
50815;SDS011;39717;47.324;8.788;2023-02-03T00:10:43;4.67;;;2.17;;
50815;SDS011;39717;47.324;8.788;2023-02-03T00:13:10;4.30;;;1.97;;
50815;SDS011;39717;47.324;8.788;2023-02-03T00:15:36;3.03;;;1.90;;
50815;SDS011;39717;47.324;8.788;2023-02-03T00:18:01;6.57;;;2.50;;
50815;SDS011;39717;47.324;8.788;2023-02-03T00:20:27;4.80;;;2.40;;
50815;SDS011;39717;47.324;8.788;2023-02-03T00:22:53;5.07;;;2.13;;
50815;SDS011;39717;47.324;8.788;2023-02-03T00:25:19;4.80;;;2.20;;
50815;SDS011;39717;47.324;8.788;2023-02-03T00:27:45;4.73;;;2.40;;
50815;SDS011;39717;47.324;8.788;2023-02-03T00:30:11;5.30;;;2.50;;
50815;SDS011;39717;47.324;8.788;2023-02-03T00:32:37;5.43;;;2.13;;
50815;SDS011;39717;47.324;8.788;2023-02-03T00:35:03;7.23;;;2.57;;
50815;SDS011;39717;47.324;8.788;2023-02-03T00:37:30;4.03;;;1.90;;
50815;SDS011;39717;47.324;8.788;2023-02-03T00:39:55;8.10;;;2.30;;
50815;SDS011;39717;47.324;8.788;2023-02-03T00:42:21;2.63;;;2.00;;
50815;SDS011;39717;47.324;8.788;2023-02-03T00:44:47;6.23;;;1.97;;
50815;SDS011;39717;47.324;8.788;2023-02-03T00:47:12;4.10;;;2.23;;
50815;SDS011;39717;47.324;8.788;2023-02-03T00:49:38;4.10;;;2.10;;
50815;SDS011;39717;47.324;8.788;2023-02-03T00:52:04;6.13;;;1.97;;
50815;SDS011;39717;47.324;8.788;2023-02-03T00:54:30;5.67;;;2.10;;
50815;SDS011;39717;47.324;8.788;2023-02-03T00:56:55;6.77;;;2.10;;
50815;SDS011;39717;47.324;8.788;2023-02-03T00:59:21;4.50;;;2.30;;
50815;SDS011;39717;47.324;8.788;2023-02-03T01:01:47;2.70;;;1.73;;
50815;SDS011;39717;47.324;8.788;2023-02-03T01:04:14;4.73;;;2.00;;
50815;SDS011;39717;47.324;8.788;2023-02-03T01:06:39;5.53;;;1.90;;
50815;SDS011;39717;47.324;8.788;2023-02-03T01:09:05;4.63;;;2.00;;
50815;SDS011;39717;47.324;8.788;2023-02-03T01:11:31;4.77;;;2.17;;
50815;SDS011;39717;47.324;8.788;2023-02-03T01:13:57;3.07;;;1.93;;
50815;SDS011;39717;47.324;8.788;2023-02-03T01:16:26;2.43;;;1.90;;
50815;SDS011;39717;47.324;8.788;2023-02-03T01:18:54;5.47;;;2.00;;
50815;SDS011;39717;47.324;8.788;2023-02-03T01:21:24;4.40;;;2.27;;
50815;SDS011;39717;47.324;8.788;2023-02-03T01:23:51;4.20;;;2.00;;
50815;SDS011;39717;47.324;8.788;2023-02-03T01:26:20;5.73;;;2.30;;
50815;SDS011;39717;47.324;8.788;2023-02-03T01:28:51;5.43;;;1.80;;
50815;SDS011;39717;47.324;8.788;2023-02-03T01:31:27;6.13;;;2.20;;
50815;SDS011;39717;47.324;8.788;2023-02-03T01:33:55;7.13;;;2.27;;
50815;SDS011;39717;47.324;8.788;2023-02-03T01:36:22;5.53;;;2.17;;
50815;SDS011;39717;47.324;8.788;2023-02-03T01:38:50;4.27;;;1.90;;
50815;SDS011;39717;47.324;8.788;2023-02-03T01:41:21;6.17;;;2.00;;
50815;SDS011;39717;47.324;8.788;2023-02-03T01:43:50;3.27;;;1.70;;
50815;SDS011;39717;47.324;8.788;2023-02-03T01:49:07;4.90;;;2.30;;
50815;SDS011;39717;47.324;8.788;2023-02-03T01:51:41;5.50;;;2.03;;
50815;SDS011;39717;47.324;8.788;2023-02-03T01:54:09;3.57;;;1.97;;
50815;SDS011;39717;47.324;8.788;2023-02-03T01:56:43;5.47;;;2.00;;
50815;SDS011;39717;47.324;8.788;2023-02-03T01:59:11;4.57;;;2.00;;
50815;SDS011;39717;47.324;8.788;2023-02-03T02:01:40;3.43;;;1.57;;
50815;SDS011;39717;47.324;8.788;2023-02-03T02:04:06;4.67;;;1.97;;
50815;SDS011;39717;47.324;8.788;2023-02-03T02:06:34;4.60;;;2.03;;
50815;SDS011;39717;47.324;8.788;2023-02-03T02:08:59;4.70;;;2.20;;
50815;SDS011;39717;47.324;8.788;2023-02-03T02:11:26;5.27;;;2.10;;
50815;SDS011;39717;47.324;8.788;2023-02-03T02:13:53;6.27;;;2.30;;
50815;SDS011;39717;47.324;8.788;2023-02-03T02:24:27;3.20;;;1.70;;
50815;SDS011;39717;47.324;8.788;2023-02-03T02:32:45;4.20;;;1.97;;
50815;SDS011;39717;47.324;8.788;2023-02-03T02:38:04;5.60;;;1.70;;
50815;SDS011;39717;47.324;8.788;2023-02-03T02:46:23;5.70;;;1.87;;
50815;SDS011;39717;47.324;8.788;2023-02-03T02:51:37;5.30;;;1.70;;
50815;SDS011;39717;47.324;8.788;2023-02-03T02:54:06;4.50;;;1.50;;
50815;SDS011;39717;47.324;8.788;2023-02-03T02:56:35;4.73;;;2.20;;
50815;SDS011;39717;47.324;8.788;2023-02-03T02:59:03;4.30;;;1.77;;
50815;SDS011;39717;47.324;8.788;2023-02-03T03:01:31;5.10;;;2.03;;
50815;SDS011;39717;47.324;8.788;2023-02-03T03:03:57;4.67;;;1.73;;
50815;SDS011;39717;47.324;8.788;2023-02-03T03:06:28;2.63;;;1.83;;
50815;SDS011;39717;47.324;8.788;2023-02-03T03:09:05;2.67;;;1.70;;
50815;SDS011;39717;47.324;8.788;2023-02-03T03:11:33;5.73;;;2.20;;
50815;SDS011;39717;47.324;8.788;2023-02-03T03:14:07;5.43;;;1.80;;
50815;SDS011;39717;47.324;8.788;2023-02-03T03:16:36;5.03;;;1.57;;
50815;SDS011;39717;47.324;8.788;2023-02-03T03:19:05;5.10;;;2.03;;
50815;SDS011;39717;47.324;8.788;2023-02-03T03:21:39;3.97;;;1.80;;
50815;SDS011;39717;47.324;8.788;2023-02-03T03:24:11;2.93;;;2.03;;
50815;SDS011;39717;47.324;8.788;2023-02-03T03:26:52;5.10;;;1.87;;
50815;SDS011;39717;47.324;8.788;2023-02-03T03:29:30;7.03;;;2.87;;
50815;SDS011;39717;47.324;8.788;2023-02-03T03:32:01;5.70;;;2.20;;
50815;SDS011;39717;47.324;8.788;2023-02-03T03:34:28;4.80;;;2.07;;
50815;SDS011;39717;47.324;8.788;2023-02-03T03:39:59;5.83;;;2.30;;
50815;SDS011;39717;47.324;8.788;2023-02-03T03:42:39;6.57;;;2.10;;
50815;SDS011;39717;47.324;8.788;2023-02-03T03:48:04;3.87;;;1.90;;
50815;SDS011;39717;47.324;8.788;2023-02-03T03:50:42;5.73;;;1.90;;
50815;SDS011;39717;47.324;8.788;2023-02-03T03:53:14;6.20;;;1.90;;
50815;SDS011;39717;47.324;8.788;2023-02-03T03:55:42;3.17;;;1.90;;
50815;SDS011;39717;47.324;8.788;2023-02-03T03:58:14;4.93;;;1.90;;
50815;SDS011;39717;47.324;8.788;2023-02-03T04:00:44;5.70;;;2.10;;
50815;SDS011;39717;47.324;8.788;2023-02-03T04:03:15;8.00;;;2.50;;
50815;SDS011;39717;47.324;8.788;2023-02-03T04:05:44;7.87;;;2.33;;
50815;SDS011;39717;47.324;8.788;2023-02-03T04:08:10;4.77;;;1.97;;
50815;SDS011;39717;47.324;8.788;2023-02-03T04:10:37;3.73;;;2.37;;
50815;SDS011;39717;47.324;8.788;2023-02-03T04:13:05;3.63;;;2.23;;
50815;SDS011;39717;47.324;8.788;2023-02-03T04:15:32;4.10;;;2.00;;
50815;SDS011;39717;47.324;8.788;2023-02-03T04:17:59;4.13;;;2.37;;
50815;SDS011;39717;47.324;8.788;2023-02-03T04:20:29;3.93;;;2.13;;
50815;SDS011;39717;47.324;8.788;2023-02-03T04:22:55;3.60;;;2.07;;
50815;SDS011;39717;47.324;8.788;2023-02-03T04:25:22;3.57;;;2.10;;
50815;SDS011;39717;47.324;8.788;2023-02-03T04:27:48;4.73;;;2.87;;
50815;SDS011;39717;47.324;8.788;2023-02-03T04:30:14;4.73;;;1.90;;
50815;SDS011;39717;47.324;8.788;2023-02-03T04:32:43;6.37;;;2.20;;
50815;SDS011;39717;47.324;8.788;2023-02-03T04:35:09;4.57;;;2.30;;
50815;SDS011;39717;47.324;8.788;2023-02-03T04:37:35;3.60;;;2.20;;
50815;SDS011;39717;47.324;8.788;2023-02-03T04:40:01;3.43;;;1.90;;
50815;SDS011;39717;47.324;8.788;2023-02-03T04:42:27;3.90;;;2.07;;
50815;SDS011;39717;47.324;8.788;2023-02-03T04:44:53;3.50;;;2.57;;
50815;SDS011;39717;47.324;8.788;2023-02-03T04:47:19;6.13;;;2.00;;
50815;SDS011;39717;47.324;8.788;2023-02-03T04:49:45;4.70;;;1.80;;
50815;SDS011;39717;47.324;8.788;2023-02-03T04:52:11;4.53;;;1.80;;
50815;SDS011;39717;47.324;8.788;2023-02-03T04:54:38;3.30;;;2.67;;
50815;SDS011;39717;47.324;8.788;2023-02-03T04:57:04;2.63;;;1.53;;
50815;SDS011;39717;47.324;8.788;2023-02-03T04:59:31;4.37;;;2.43;;
50815;SDS011;39717;47.324;8.788;2023-02-03T05:01:57;3.13;;;2.03;;
50815;SDS011;39717;47.324;8.788;2023-02-03T05:04:25;4.80;;;2.10;;
50815;SDS011;39717;47.324;8.788;2023-02-03T05:06:51;5.30;;;2.13;;
50815;SDS011;39717;47.324;8.788;2023-02-03T05:09:17;4.77;;;1.90;;
50815;SDS011;39717;47.324;8.788;2023-02-03T05:11:42;5.13;;;2.30;;
50815;SDS011;39717;47.324;8.788;2023-02-03T05:14:08;3.47;;;2.00;;
50815;SDS011;39717;47.324;8.788;2023-02-03T05:16:34;4.97;;;1.80;;
50815;SDS011;39717;47.324;8.788;2023-02-03T05:18:59;5.23;;;2.17;;
50815;SDS011;39717;47.324;8.788;2023-02-03T05:21:25;4.20;;;2.20;;
50815;SDS011;39717;47.324;8.788;2023-02-03T05:23:51;2.93;;;1.57;;
50815;SDS011;39717;47.324;8.788;2023-02-03T05:26:17;3.63;;;2.00;;
50815;SDS011;39717;47.324;8.788;2023-02-03T05:28:42;8.40;;;1.73;;
50815;SDS011;39717;47.324;8.788;2023-02-03T05:31:08;3.37;;;1.97;;
50815;SDS011;39717;47.324;8.788;2023-02-03T05:33:34;5.23;;;2.10;;
50815;SDS011;39717;47.324;8.788;2023-02-03T05:36:00;3.67;;;1.73;;
50815;SDS011;39717;47.324;8.788;2023-02-03T05:38:26;2.63;;;1.90;;
50815;SDS011;39717;47.324;8.788;2023-02-03T05:40:52;4.20;;;2.07;;
50815;SDS011;39717;47.324;8.788;2023-02-03T05:43:37;4.33;;;1.70;;
50815;SDS011;39717;47.324;8.788;2023-02-03T05:46:04;6.60;;;2.87;;
50815;SDS011;39717;47.324;8.788;2023-02-03T05:48:31;5.40;;;2.20;;
50815;SDS011;39717;47.324;8.788;2023-02-03T05:50:57;4.17;;;1.70;;
50815;SDS011;39717;47.324;8.788;2023-02-03T05:53:24;2.87;;;1.60;;
50815;SDS011;39717;47.324;8.788;2023-02-03T05:55:51;3.50;;;2.40;;
50815;SDS011;39717;47.324;8.788;2023-02-03T05:58:17;7.37;;;1.93;;
50815;SDS011;39717;47.324;8.788;2023-02-03T06:00:43;5.47;;;1.70;;
50815;SDS011;39717;47.324;8.788;2023-02-03T06:03:10;6.03;;;2.10;;
50815;SDS011;39717;47.324;8.788;2023-02-03T06:05:37;5.50;;;2.10;;
50815;SDS011;39717;47.324;8.788;2023-02-03T06:08:06;4.43;;;2.20;;
50815;SDS011;39717;47.324;8.788;2023-02-03T06:10:32;7.70;;;2.80;;
50815;SDS011;39717;47.324;8.788;2023-02-03T06:12:59;6.23;;;2.20;;
50815;SDS011;39717;47.324;8.788;2023-02-03T06:15:25;4.03;;;1.90;;
50815;SDS011;39717;47.324;8.788;2023-02-03T06:17:51;2.40;;;1.70;;
50815;SDS011;39717;47.324;8.788;2023-02-03T06:20:17;3.23;;;1.70;;
50815;SDS011;39717;47.324;8.788;2023-02-03T06:22:44;4.27;;;2.23;;
50815;SDS011;39717;47.324;8.788;2023-02-03T06:25:10;3.80;;;2.37;;
50815;SDS011;39717;47.324;8.788;2023-02-03T06:27:38;5.57;;;2.33;;
50815;SDS011;39717;47.324;8.788;2023-02-03T06:30:05;3.47;;;2.03;;
50815;SDS011;39717;47.324;8.788;2023-02-03T06:32:31;4.10;;;1.70;;
50815;SDS011;39717;47.324;8.788;2023-02-03T06:34:58;6.03;;;2.47;;
50815;SDS011;39717;47.324;8.788;2023-02-03T06:37:24;4.57;;;2.07;;
50815;SDS011;39717;47.324;8.788;2023-02-03T06:39:50;4.00;;;2.13;;
50815;SDS011;39717;47.324;8.788;2023-02-03T06:42:16;4.37;;;2.20;;
50815;SDS011;39717;47.324;8.788;2023-02-03T06:44:42;5.70;;;2.20;;
50815;SDS011;39717;47.324;8.788;2023-02-03T06:47:08;10.33;;;2.93;;
50815;SDS011;39717;47.324;8.788;2023-02-03T06:49:34;5.70;;;2.30;;
50815;SDS011;39717;47.324;8.788;2023-02-03T06:51:59;7.57;;;2.40;;
50815;SDS011;39717;47.324;8.788;2023-02-03T06:54:25;4.23;;;1.90;;
50815;SDS011;39717;47.324;8.788;2023-02-03T06:56:51;4.13;;;2.13;;
50815;SDS011;39717;47.324;8.788;2023-02-03T06:59:17;4.73;;;2.00;;
50815;SDS011;39717;47.324;8.788;2023-02-03T07:01:43;3.80;;;2.20;;
50815;SDS011;39717;47.324;8.788;2023-02-03T07:04:08;3.17;;;2.17;;
50815;SDS011;39717;47.324;8.788;2023-02-03T07:06:35;4.07;;;2.20;;
50815;SDS011;39717;47.324;8.788;2023-02-03T07:09:02;4.87;;;2.13;;
50815;SDS011;39717;47.324;8.788;2023-02-03T07:11:28;5.10;;;2.33;;
50815;SDS011;39717;47.324;8.788;2023-02-03T07:13:55;3.50;;;2.20;;
50815;SDS011;39717;47.324;8.788;2023-02-03T07:16:21;3.27;;;2.20;;
50815;SDS011;39717;47.324;8.788;2023-02-03T07:18:47;4.10;;;1.87;;
50815;SDS011;39717;47.324;8.788;2023-02-03T07:21:13;3.83;;;2.30;;
50815;SDS011;39717;47.324;8.788;2023-02-03T07:23:40;5.47;;;2.07;;
50815;SDS011;39717;47.324;8.788;2023-02-03T07:26:06;3.30;;;2.23;;
50815;SDS011;39717;47.324;8.788;2023-02-03T07:28:33;4.40;;;2.37;;
50815;SDS011;39717;47.324;8.788;2023-02-03T07:31:00;2.70;;;1.93;;
50815;SDS011;39717;47.324;8.788;2023-02-03T07:33:28;5.10;;;2.33;;
50815;SDS011;39717;47.324;8.788;2023-02-03T07:35:58;4.67;;;2.33;;
50815;SDS011;39717;47.324;8.788;2023-02-03T07:38:26;3.30;;;2.07;;
50815;SDS011;39717;47.324;8.788;2023-02-03T07:40:52;3.13;;;1.87;;
50815;SDS011;39717;47.324;8.788;2023-02-03T07:43:19;2.50;;;1.83;;
50815;SDS011;39717;47.324;8.788;2023-02-03T07:45:45;2.87;;;1.73;;
50815;SDS011;39717;47.324;8.788;2023-02-03T07:48:11;8.77;;;2.00;;
50815;SDS011;39717;47.324;8.788;2023-02-03T07:50:39;2.73;;;2.00;;
50815;SDS011;39717;47.324;8.788;2023-02-03T07:53:05;7.63;;;2.10;;
50815;SDS011;39717;47.324;8.788;2023-02-03T07:55:33;4.47;;;2.10;;
50815;SDS011;39717;47.324;8.788;2023-02-03T07:57:59;2.43;;;1.83;;
50815;SDS011;39717;47.324;8.788;2023-02-03T08:00:25;2.40;;;1.70;;
50815;SDS011;39717;47.324;8.788;2023-02-03T08:02:51;4.90;;;2.27;;
50815;SDS011;39717;47.324;8.788;2023-02-03T08:05:17;8.80;;;2.03;;
50815;SDS011;39717;47.324;8.788;2023-02-03T08:07:44;4.30;;;2.23;;
50815;SDS011;39717;47.324;8.788;2023-02-03T08:10:11;3.70;;;2.07;;
50815;SDS011;39717;47.324;8.788;2023-02-03T08:12:39;4.10;;;2.20;;
50815;SDS011;39717;47.324;8.788;2023-02-03T08:15:11;4.63;;;2.40;;
50815;SDS011;39717;47.324;8.788;2023-02-03T08:17:37;4.27;;;2.07;;
50815;SDS011;39717;47.324;8.788;2023-02-03T08:20:07;3.70;;;2.23;;
50815;SDS011;39717;47.324;8.788;2023-02-03T08:22:33;6.77;;;2.00;;
50815;SDS011;39717;47.324;8.788;2023-02-03T08:25:00;5.83;;;2.20;;
50815;SDS011;39717;47.324;8.788;2023-02-03T08:27:28;3.83;;;2.50;;
50815;SDS011;39717;47.324;8.788;2023-02-03T08:29:54;3.30;;;2.20;;
50815;SDS011;39717;47.324;8.788;2023-02-03T08:32:21;4.93;;;2.37;;
50815;SDS011;39717;47.324;8.788;2023-02-03T08:34:49;7.23;;;2.03;;
50815;SDS011;39717;47.324;8.788;2023-02-03T08:37:16;3.37;;;1.80;;
50815;SDS011;39717;47.324;8.788;2023-02-03T08:39:42;6.73;;;2.57;;
50815;SDS011;39717;47.324;8.788;2023-02-03T08:42:09;2.50;;;1.97;;
50815;SDS011;39717;47.324;8.788;2023-02-03T08:44:36;8.40;;;2.63;;
50815;SDS011;39717;47.324;8.788;2023-02-03T08:47:04;3.03;;;1.80;;
50815;SDS011;39717;47.324;8.788;2023-02-03T08:49:31;4.00;;;2.20;;
50815;SDS011;39717;47.324;8.788;2023-02-03T08:52:00;2.83;;;1.87;;
50815;SDS011;39717;47.324;8.788;2023-02-03T08:54:27;4.63;;;2.10;;
50815;SDS011;39717;47.324;8.788;2023-02-03T08:56:53;3.53;;;2.00;;
50815;SDS011;39717;47.324;8.788;2023-02-03T08:59:19;3.63;;;1.73;;
50815;SDS011;39717;47.324;8.788;2023-02-03T09:01:45;3.63;;;1.70;;
50815;SDS011;39717;47.324;8.788;2023-02-03T09:04:14;4.70;;;1.63;;
50815;SDS011;39717;47.324;8.788;2023-02-03T09:06:48;5.33;;;1.73;;
50815;SDS011;39717;47.324;8.788;2023-02-03T09:09:15;2.73;;;2.20;;
50815;SDS011;39717;47.324;8.788;2023-02-03T09:11:41;4.13;;;2.10;;
50815;SDS011;39717;47.324;8.788;2023-02-03T09:14:07;1.70;;;1.23;;
50815;SDS011;39717;47.324;8.788;2023-02-03T09:16:34;8.63;;;2.07;;
50815;SDS011;39717;47.324;8.788;2023-02-03T09:19:00;4.60;;;1.97;;
50815;SDS011;39717;47.324;8.788;2023-02-03T09:21:27;5.83;;;1.93;;
50815;SDS011;39717;47.324;8.788;2023-02-03T09:23:53;3.00;;;1.77;;
50815;SDS011;39717;47.324;8.788;2023-02-03T09:26:19;5.27;;;1.90;;
50815;SDS011;39717;47.324;8.788;2023-02-03T09:28:45;2.67;;;1.47;;
50815;SDS011;39717;47.324;8.788;2023-02-03T09:31:12;3.57;;;1.80;;
50815;SDS011;39717;47.324;8.788;2023-02-03T09:33:39;3.27;;;2.00;;
50815;SDS011;39717;47.324;8.788;2023-02-03T09:36:06;3.80;;;1.60;;
50815;SDS011;39717;47.324;8.788;2023-02-03T09:38:33;6.17;;;1.70;;
50815;SDS011;39717;47.324;8.788;2023-02-03T09:41:38;1.07;;;0.90;;
50815;SDS011;39717;47.324;8.788;2023-02-03T09:46:43;1.67;;;1.30;;
50815;SDS011;39717;47.324;8.788;2023-02-03T09:49:36;2.53;;;1.40;;
50815;SDS011;39717;47.324;8.788;2023-02-03T09:54:41;2.03;;;1.13;;
50815;SDS011;39717;47.324;8.788;2023-02-03T09:57:29;1.90;;;1.33;;
50815;SDS011;39717;47.324;8.788;2023-02-03T10:00:12;2.03;;;1.37;;
50815;SDS011;39717;47.324;8.788;2023-02-03T10:03:06;2.60;;;1.00;;
50815;SDS011;39717;47.324;8.788;2023-02-03T10:08:24;2.83;;;0.97;;
50815;SDS011;39717;47.324;8.788;2023-02-03T10:11:29;2.93;;;1.30;;
50815;SDS011;39717;47.324;8.788;2023-02-03T10:19:13;0.70;;;0.70;;
50815;SDS011;39717;47.324;8.788;2023-02-03T10:21:46;1.40;;;1.00;;
50815;SDS011;39717;47.324;8.788;2023-02-03T10:24:16;2.47;;;1.20;;
50815;SDS011;39717;47.324;8.788;2023-02-03T10:26:43;2.93;;;1.57;;
50815;SDS011;39717;47.324;8.788;2023-02-03T10:29:17;2.77;;;1.23;;
50815;SDS011;39717;47.324;8.788;2023-02-03T10:31:45;2.23;;;0.97;;
50815;SDS011;39717;47.324;8.788;2023-02-03T10:34:13;1.73;;;1.03;;
50815;SDS011;39717;47.324;8.788;2023-02-03T10:39:10;3.50;;;1.00;;
50815;SDS011;39717;47.324;8.788;2023-02-03T10:41:39;2.30;;;0.80;;
50815;SDS011;39717;47.324;8.788;2023-02-03T10:44:05;2.23;;;1.10;;
50815;SDS011;39717;47.324;8.788;2023-02-03T10:46:32;0.90;;;0.90;;
50815;SDS011;39717;47.324;8.788;2023-02-03T10:48:59;0.57;;;0.57;;
50815;SDS011;39717;47.324;8.788;2023-02-03T10:53:54;3.13;;;1.13;;
50815;SDS011;39717;47.324;8.788;2023-02-03T10:59:26;1.50;;;1.30;;
50815;SDS011;39717;47.324;8.788;2023-02-03T11:01:53;1.33;;;1.00;;
50815;SDS011;39717;47.324;8.788;2023-02-03T11:04:23;1.43;;;0.80;;
50815;SDS011;39717;47.324;8.788;2023-02-03T11:06:57;1.70;;;1.23;;
50815;SDS011;39717;47.324;8.788;2023-02-03T11:09:31;2.67;;;1.10;;
50815;SDS011;39717;47.324;8.788;2023-02-03T11:12:31;2.23;;;1.20;;
50815;SDS011;39717;47.324;8.788;2023-02-03T11:14:51;4.27;;;1.27;;
50815;SDS011;39717;47.324;8.788;2023-02-03T11:17:18;1.33;;;1.00;;
50815;SDS011;39717;47.324;8.788;2023-02-03T11:19:47;1.93;;;1.30;;
50815;SDS011;39717;47.324;8.788;2023-02-03T11:22:27;2.17;;;1.50;;
50815;SDS011;39717;47.324;8.788;2023-02-03T11:24:53;1.60;;;1.37;;
50815;SDS011;39717;47.324;8.788;2023-02-03T11:27:20;2.97;;;1.40;;
50815;SDS011;39717;47.324;8.788;2023-02-03T11:29:49;3.63;;;1.70;;
50815;SDS011;39717;47.324;8.788;2023-02-03T11:32:17;2.57;;;1.60;;
50815;SDS011;39717;47.324;8.788;2023-02-03T11:34:48;2.10;;;1.60;;
50815;SDS011;39717;47.324;8.788;2023-02-03T11:37:33;2.83;;;1.30;;
50815;SDS011;39717;47.324;8.788;2023-02-03T11:42:35;2.27;;;1.17;;
50815;SDS011;39717;47.324;8.788;2023-02-03T11:45:24;2.33;;;1.73;;
50815;SDS011;39717;47.324;8.788;2023-02-03T11:55:42;1.50;;;1.13;;
50815;SDS011;39717;47.324;8.788;2023-02-03T12:00:49;2.67;;;1.37;;
50815;SDS011;39717;47.324;8.788;2023-02-03T12:06:15;1.40;;;1.30;;
50815;SDS011;39717;47.324;8.788;2023-02-03T12:08:48;2.43;;;1.47;;
50815;SDS011;39717;47.324;8.788;2023-02-03T12:11:33;2.53;;;1.30;;
50815;SDS011;39717;47.324;8.788;2023-02-03T12:14:14;2.77;;;1.30;;
50815;SDS011;39717;47.324;8.788;2023-02-03T12:22:01;2.57;;;1.33;;
50815;SDS011;39717;47.324;8.788;2023-02-03T12:27:04;2.07;;;1.63;;
50815;SDS011;39717;47.324;8.788;2023-02-03T12:29:38;3.23;;;1.60;;
50815;SDS011;39717;47.324;8.788;2023-02-03T12:34:37;1.53;;;1.20;;
50815;SDS011;39717;47.324;8.788;2023-02-03T12:37:07;1.87;;;1.20;;
50815;SDS011;39717;47.324;8.788;2023-02-03T12:42:45;1.00;;;0.90;;
50815;SDS011;39717;47.324;8.788;2023-02-03T12:45:28;1.20;;;1.00;;
50815;SDS011;39717;47.324;8.788;2023-02-03T12:48:11;1.30;;;1.20;;
50815;SDS011;39717;47.324;8.788;2023-02-03T12:53:14;1.43;;;1.20;;
50815;SDS011;39717;47.324;8.788;2023-02-03T12:58:19;2.17;;;1.20;;
50815;SDS011;39717;47.324;8.788;2023-02-03T13:00:47;1.10;;;1.00;;
50815;SDS011;39717;47.324;8.788;2023-02-03T13:05:44;2.03;;;1.10;;
50815;SDS011;39717;47.324;8.788;2023-02-03T13:08:25;0.97;;;0.90;;
50815;SDS011;39717;47.324;8.788;2023-02-03T13:11:16;3.63;;;1.43;;
50815;SDS011;39717;47.324;8.788;2023-02-03T13:13:47;2.23;;;1.30;;
50815;SDS011;39717;47.324;8.788;2023-02-03T13:16:13;2.33;;;2.00;;
50815;SDS011;39717;47.324;8.788;2023-02-03T13:18:41;2.27;;;1.30;;
50815;SDS011;39717;47.324;8.788;2023-02-03T13:21:11;1.77;;;1.10;;
50815;SDS011;39717;47.324;8.788;2023-02-03T13:23:41;2.17;;;1.30;;
50815;SDS011;39717;47.324;8.788;2023-02-03T13:26:17;2.13;;;1.50;;
50815;SDS011;39717;47.324;8.788;2023-02-03T13:28:52;1.90;;;1.50;;
50815;SDS011;39717;47.324;8.788;2023-02-03T13:41:52;4.17;;;1.37;;
50815;SDS011;39717;47.324;8.788;2023-02-03T13:44:24;2.00;;;1.60;;
50815;SDS011;39717;47.324;8.788;2023-02-03T13:46:55;4.00;;;1.40;;
50815;SDS011;39717;47.324;8.788;2023-02-03T13:49:23;2.80;;;1.93;;
50815;SDS011;39717;47.324;8.788;2023-02-03T13:51:50;2.67;;;1.40;;
50815;SDS011;39717;47.324;8.788;2023-02-03T13:54:36;2.60;;;1.50;;
50815;SDS011;39717;47.324;8.788;2023-02-03T13:57:04;2.40;;;1.77;;
50815;SDS011;39717;47.324;8.788;2023-02-03T13:59:39;2.13;;;1.30;;
50815;SDS011;39717;47.324;8.788;2023-02-03T14:12:35;3.20;;;1.23;;
50815;SDS011;39717;47.324;8.788;2023-02-03T14:20:33;1.50;;;1.40;;
50815;SDS011;39717;47.324;8.788;2023-02-03T14:25:31;2.43;;;1.67;;
50815;SDS011;39717;47.324;8.788;2023-02-03T14:28:04;4.90;;;1.80;;
50815;SDS011;39717;47.324;8.788;2023-02-03T14:30:32;3.17;;;1.70;;
50815;SDS011;39717;47.324;8.788;2023-02-03T14:32:58;1.83;;;1.40;;
50815;SDS011;39717;47.324;8.788;2023-02-03T14:35:29;6.23;;;1.77;;
50815;SDS011;39717;47.324;8.788;2023-02-03T14:37:57;2.30;;;1.60;;
50815;SDS011;39717;47.324;8.788;2023-02-03T14:43:19;1.93;;;1.47;;
50815;SDS011;39717;47.324;8.788;2023-02-03T15:00:49;4.63;;;1.70;;
50815;SDS011;39717;47.324;8.788;2023-02-03T15:03:18;3.47;;;1.60;;
50815;SDS011;39717;47.324;8.788;2023-02-03T15:05:48;3.77;;;2.10;;
50815;SDS011;39717;47.324;8.788;2023-02-03T15:11:13;1.60;;;1.43;;
50815;SDS011;39717;47.324;8.788;2023-02-03T15:13:40;2.87;;;1.70;;
50815;SDS011;39717;47.324;8.788;2023-02-03T15:16:11;1.53;;;1.43;;
50815;SDS011;39717;47.324;8.788;2023-02-03T15:18:39;4.63;;;1.90;;
50815;SDS011;39717;47.324;8.788;2023-02-03T15:21:05;3.53;;;1.80;;
50815;SDS011;39717;47.324;8.788;2023-02-03T15:23:38;2.73;;;1.40;;
50815;SDS011;39717;47.324;8.788;2023-02-03T15:26:11;2.20;;;1.17;;
50815;SDS011;39717;47.324;8.788;2023-02-03T15:28:37;3.20;;;1.60;;
50815;SDS011;39717;47.324;8.788;2023-02-03T15:31:20;2.33;;;1.60;;
50815;SDS011;39717;47.324;8.788;2023-02-03T15:33:48;2.17;;;1.10;;
50815;SDS011;39717;47.324;8.788;2023-02-03T15:36:17;3.90;;;1.60;;
50815;SDS011;39717;47.324;8.788;2023-02-03T15:38:47;8.77;;;1.93;;
50815;SDS011;39717;47.324;8.788;2023-02-03T15:41:21;1.30;;;1.20;;
50815;SDS011;39717;47.324;8.788;2023-02-03T15:43:47;1.60;;;1.20;;
50815;SDS011;39717;47.324;8.788;2023-02-03T15:46:16;1.47;;;1.27;;
50815;SDS011;39717;47.324;8.788;2023-02-03T15:51:32;3.83;;;2.50;;
50815;SDS011;39717;47.324;8.788;2023-02-03T15:54:00;2.37;;;1.57;;
50815;SDS011;39717;47.324;8.788;2023-02-03T15:56:50;2.70;;;1.43;;
50815;SDS011;39717;47.324;8.788;2023-02-03T15:59:22;2.40;;;1.00;;
50815;SDS011;39717;47.324;8.788;2023-02-03T16:01:50;2.63;;;1.53;;
50815;SDS011;39717;47.324;8.788;2023-02-03T16:04:16;2.40;;;1.50;;
50815;SDS011;39717;47.324;8.788;2023-02-03T16:06:44;2.03;;;1.00;;
50815;SDS011;39717;47.324;8.788;2023-02-03T16:09:31;1.73;;;1.10;;
50815;SDS011;39717;47.324;8.788;2023-02-03T16:14:46;4.20;;;2.03;;
50815;SDS011;39717;47.324;8.788;2023-02-03T16:17:22;4.67;;;1.93;;
50815;SDS011;39717;47.324;8.788;2023-02-03T16:19:49;2.30;;;1.47;;
50815;SDS011;39717;47.324;8.788;2023-02-03T16:22:26;2.40;;;1.40;;
50815;SDS011;39717;47.324;8.788;2023-02-03T16:24:53;3.37;;;1.70;;
50815;SDS011;39717;47.324;8.788;2023-02-03T16:29:52;1.53;;;1.37;;
50815;SDS011;39717;47.324;8.788;2023-02-03T16:32:37;1.87;;;1.30;;
50815;SDS011;39717;47.324;8.788;2023-02-03T16:35:22;2.73;;;1.70;;
50815;SDS011;39717;47.324;8.788;2023-02-03T16:38:11;2.53;;;1.83;;
50815;SDS011;39717;47.324;8.788;2023-02-03T16:40:57;3.03;;;1.60;;
50815;SDS011;39717;47.324;8.788;2023-02-03T16:43:42;3.27;;;1.73;;
50815;SDS011;39717;47.324;8.788;2023-02-03T16:46:28;2.60;;;1.83;;
50815;SDS011;39717;47.324;8.788;2023-02-03T16:49:12;2.13;;;1.30;;
50815;SDS011;39717;47.324;8.788;2023-02-03T16:51:57;3.63;;;1.87;;
50815;SDS011;39717;47.324;8.788;2023-02-03T16:54:23;4.43;;;1.50;;
50815;SDS011;39717;47.324;8.788;2023-02-03T16:56:52;2.17;;;1.33;;
50815;SDS011;39717;47.324;8.788;2023-02-03T16:59:20;3.53;;;2.43;;
50815;SDS011;39717;47.324;8.788;2023-02-03T17:01:46;2.23;;;1.30;;
50815;SDS011;39717;47.324;8.788;2023-02-03T17:04:12;1.70;;;1.20;;
50815;SDS011;39717;47.324;8.788;2023-02-03T17:06:39;2.23;;;1.30;;
50815;SDS011;39717;47.324;8.788;2023-02-03T17:09:07;2.53;;;1.20;;
50815;SDS011;39717;47.324;8.788;2023-02-03T17:11:33;2.43;;;1.23;;
50815;SDS011;39717;47.324;8.788;2023-02-03T17:13:59;2.80;;;1.27;;
50815;SDS011;39717;47.324;8.788;2023-02-03T17:16:27;2.17;;;1.03;;
50815;SDS011;39717;47.324;8.788;2023-02-03T17:18:54;1.87;;;1.30;;
50815;SDS011;39717;47.324;8.788;2023-02-03T17:21:25;2.80;;;1.17;;
50815;SDS011;39717;47.324;8.788;2023-02-03T17:23:51;1.73;;;1.43;;
50815;SDS011;39717;47.324;8.788;2023-02-03T17:26:17;3.37;;;2.00;;
50815;SDS011;39717;47.324;8.788;2023-02-03T17:28:43;1.10;;;1.00;;
50815;SDS011;39717;47.324;8.788;2023-02-03T17:31:11;3.10;;;0.93;;